sensor_id;sensor_type;location;lat;lon;timestamp;temperature;humidity
25328;DHT22;13279;51.300;12.394;2022-10-16T00:01:18;15.60;99.90
25328;DHT22;13279;51.300;12.394;2022-10-16T00:03:46;15.50;99.90
25328;DHT22;13279;51.300;12.394;2022-10-16T00:06:15;15.50;99.90
25328;DHT22;13279;51.300;12.394;2022-10-16T00:08:45;15.50;99.90
25328;DHT22;13279;51.300;12.394;2022-10-16T00:11:15;15.50;99.90
25328;DHT22;13279;51.300;12.394;2022-10-16T00:13:44;15.50;99.90
25328;DHT22;13279;51.300;12.394;2022-10-16T00:16:13;15.50;99.90
25328;DHT22;13279;51.300;12.394;2022-10-16T00:18:41;15.50;99.90
25328;DHT22;13279;51.300;12.394;2022-10-16T00:21:10;15.50;99.90
25328;DHT22;13279;51.300;12.394;2022-10-16T00:23:38;15.50;99.90
25328;DHT22;13279;51.300;12.394;2022-10-16T00:26:09;15.50;99.90
25328;DHT22;13279;51.300;12.394;2022-10-16T00:28:37;15.60;99.90
25328;DHT22;13279;51.300;12.394;2022-10-16T00:31:06;15.60;99.90
25328;DHT22;13279;51.300;12.394;2022-10-16T00:33:34;15.60;99.90
25328;DHT22;13279;51.300;12.394;2022-10-16T00:36:03;15.60;99.90
25328;DHT22;13279;51.300;12.394;2022-10-16T00:38:31;15.70;99.90
25328;DHT22;13279;51.300;12.394;2022-10-16T00:40:59;15.70;99.90
25328;DHT22;13279;51.300;12.394;2022-10-16T00:43:37;15.70;99.90
25328;DHT22;13279;51.300;12.394;2022-10-16T00:46:12;15.80;99.90
25328;DHT22;13279;51.300;12.394;2022-10-16T00:48:41;15.80;99.90
25328;DHT22;13279;51.300;12.394;2022-10-16T00:51:09;15.80;99.90
25328;DHT22;13279;51.300;12.394;2022-10-16T00:53:37;15.80;99.90
25328;DHT22;13279;51.300;12.394;2022-10-16T00:56:05;15.80;99.90
25328;DHT22;13279;51.300;12.394;2022-10-16T00:58:34;15.90;99.90
25328;DHT22;13279;51.300;12.394;2022-10-16T01:01:02;15.90;99.90
25328;DHT22;13279;51.300;12.394;2022-10-16T01:03:34;15.90;99.90
25328;DHT22;13279;51.300;12.394;2022-10-16T01:06:13;15.90;99.90
25328;DHT22;13279;51.300;12.394;2022-10-16T01:08:49;15.90;99.90
25328;DHT22;13279;51.300;12.394;2022-10-16T01:11:24;16.00;99.90
25328;DHT22;13279;51.300;12.394;2022-10-16T01:14:00;16.00;99.90
25328;DHT22;13279;51.300;12.394;2022-10-16T01:16:34;16.00;99.90
25328;DHT22;13279;51.300;12.394;2022-10-16T01:19:09;16.00;99.90
25328;DHT22;13279;51.300;12.394;2022-10-16T01:21:41;16.00;99.90
25328;DHT22;13279;51.300;12.394;2022-10-16T01:24:17;16.10;99.90
25328;DHT22;13279;51.300;12.394;2022-10-16T01:27:14;16.10;99.90
25328;DHT22;13279;51.300;12.394;2022-10-16T01:29:49;16.00;99.90
25328;DHT22;13279;51.300;12.394;2022-10-16T01:32:22;16.00;99.90
25328;DHT22;13279;51.300;12.394;2022-10-16T01:34:53;15.90;99.90
25328;DHT22;13279;51.300;12.394;2022-10-16T01:37:37;15.90;99.90
25328;DHT22;13279;51.300;12.394;2022-10-16T01:40:10;15.80;99.90
25328;DHT22;13279;51.300;12.394;2022-10-16T01:42:42;15.80;99.90
25328;DHT22;13279;51.300;12.394;2022-10-16T01:45:15;15.70;99.90
25328;DHT22;13279;51.300;12.394;2022-10-16T01:47:45;15.70;99.90
25328;DHT22;13279;51.300;12.394;2022-10-16T01:50:15;15.60;99.90
25328;DHT22;13279;51.300;12.394;2022-10-16T01:52:47;15.60;99.90
25328;DHT22;13279;51.300;12.394;2022-10-16T01:55:18;15.50;99.90
25328;DHT22;13279;51.300;12.394;2022-10-16T01:57:49;15.50;99.90
25328;DHT22;13279;51.300;12.394;2022-10-16T02:00:19;15.50;99.90
25328;DHT22;13279;51.300;12.394;2022-10-16T02:02:49;15.40;99.90
25328;DHT22;13279;51.300;12.394;2022-10-16T02:05:23;15.40;99.90
25328;DHT22;13279;51.300;12.394;2022-10-16T02:07:53;15.30;99.90
25328;DHT22;13279;51.300;12.394;2022-10-16T02:10:21;15.30;99.90
25328;DHT22;13279;51.300;12.394;2022-10-16T02:12:56;15.30;99.90
25328;DHT22;13279;51.300;12.394;2022-10-16T02:15:25;15.20;99.90
25328;DHT22;13279;51.300;12.394;2022-10-16T02:17:52;15.20;99.90
25328;DHT22;13279;51.300;12.394;2022-10-16T02:20:25;15.20;99.90
25328;DHT22;13279;51.300;12.394;2022-10-16T02:22:54;15.10;99.90
25328;DHT22;13279;51.300;12.394;2022-10-16T02:25:29;15.20;99.90
25328;DHT22;13279;51.300;12.394;2022-10-16T02:28:03;15.20;99.90
25328;DHT22;13279;51.300;12.394;2022-10-16T02:30:34;15.20;99.90
25328;DHT22;13279;51.300;12.394;2022-10-16T02:33:05;15.20;99.90
25328;DHT22;13279;51.300;12.394;2022-10-16T02:35:34;15.10;99.90
25328;DHT22;13279;51.300;12.394;2022-10-16T02:38:03;15.20;99.90
25328;DHT22;13279;51.300;12.394;2022-10-16T02:40:31;15.20;99.90
25328;DHT22;13279;51.300;12.394;2022-10-16T02:43:03;15.20;99.90
25328;DHT22;13279;51.300;12.394;2022-10-16T02:45:31;15.10;99.90
25328;DHT22;13279;51.300;12.394;2022-10-16T02:47:59;15.10;99.90
25328;DHT22;13279;51.300;12.394;2022-10-16T02:50:26;15.10;99.90
25328;DHT22;13279;51.300;12.394;2022-10-16T02:52:54;15.10;99.90
25328;DHT22;13279;51.300;12.394;2022-10-16T02:55:21;15.00;99.90
25328;DHT22;13279;51.300;12.394;2022-10-16T02:57:49;15.00;99.90
25328;DHT22;13279;51.300;12.394;2022-10-16T03:00:18;14.90;99.90
25328;DHT22;13279;51.300;12.394;2022-10-16T03:02:45;14.90;99.90
25328;DHT22;13279;51.300;12.394;2022-10-16T03:05:13;14.90;99.90
25328;DHT22;13279;51.300;12.394;2022-10-16T03:07:41;14.90;99.90
25328;DHT22;13279;51.300;12.394;2022-10-16T03:10:09;14.90;99.90
25328;DHT22;13279;51.300;12.394;2022-10-16T03:12:36;14.80;99.90
25328;DHT22;13279;51.300;12.394;2022-10-16T03:15:04;14.80;99.90
25328;DHT22;13279;51.300;12.394;2022-10-16T03:17:34;14.80;99.90
25328;DHT22;13279;51.300;12.394;2022-10-16T03:20:02;14.80;99.90
25328;DHT22;13279;51.300;12.394;2022-10-16T03:22:29;14.80;99.90
25328;DHT22;13279;51.300;12.394;2022-10-16T03:24:57;14.80;99.90
25328;DHT22;13279;51.300;12.394;2022-10-16T03:27:24;14.80;99.90
25328;DHT22;13279;51.300;12.394;2022-10-16T03:29:52;14.80;99.90
25328;DHT22;13279;51.300;12.394;2022-10-16T03:32:19;14.80;99.90
25328;DHT22;13279;51.300;12.394;2022-10-16T03:34:49;14.80;99.90
25328;DHT22;13279;51.300;12.394;2022-10-16T03:37:16;14.80;99.90
25328;DHT22;13279;51.300;12.394;2022-10-16T03:39:44;14.80;99.90
25328;DHT22;13279;51.300;12.394;2022-10-16T03:42:11;14.80;99.90
25328;DHT22;13279;51.300;12.394;2022-10-16T03:44:38;14.80;99.90
25328;DHT22;13279;51.300;12.394;2022-10-16T03:47:06;14.80;99.90
25328;DHT22;13279;51.300;12.394;2022-10-16T03:49:33;14.70;99.90
25328;DHT22;13279;51.300;12.394;2022-10-16T03:52:02;14.70;99.90
25328;DHT22;13279;51.300;12.394;2022-10-16T03:54:30;14.70;99.90
25328;DHT22;13279;51.300;12.394;2022-10-16T03:56:57;14.70;99.90
25328;DHT22;13279;51.300;12.394;2022-10-16T03:59:25;14.70;99.90
25328;DHT22;13279;51.300;12.394;2022-10-16T04:01:52;14.70;99.90
25328;DHT22;13279;51.300;12.394;2022-10-16T04:04:20;14.70;99.90
25328;DHT22;13279;51.300;12.394;2022-10-16T04:06:47;14.70;99.90
25328;DHT22;13279;51.300;12.394;2022-10-16T04:09:16;14.70;99.90
25328;DHT22;13279;51.300;12.394;2022-10-16T04:11:44;14.70;99.90
25328;DHT22;13279;51.300;12.394;2022-10-16T04:14:11;14.60;99.90
25328;DHT22;13279;51.300;12.394;2022-10-16T04:16:38;14.70;99.90
25328;DHT22;13279;51.300;12.394;2022-10-16T04:19:06;14.70;99.90
25328;DHT22;13279;51.300;12.394;2022-10-16T04:21:33;14.60;99.90
25328;DHT22;13279;51.300;12.394;2022-10-16T04:24:01;14.60;99.90
25328;DHT22;13279;51.300;12.394;2022-10-16T04:26:30;14.60;99.90
25328;DHT22;13279;51.300;12.394;2022-10-16T04:28:57;14.60;99.90
25328;DHT22;13279;51.300;12.394;2022-10-16T04:31:25;14.60;99.90
25328;DHT22;13279;51.300;12.394;2022-10-16T04:33:52;14.60;99.90
25328;DHT22;13279;51.300;12.394;2022-10-16T04:36:20;14.60;99.90
25328;DHT22;13279;51.300;12.394;2022-10-16T04:38:48;14.50;99.90
25328;DHT22;13279;51.300;12.394;2022-10-16T04:41:15;14.50;99.90
25328;DHT22;13279;51.300;12.394;2022-10-16T04:43:44;14.50;99.90
25328;DHT22;13279;51.300;12.394;2022-10-16T04:46:11;14.50;99.90
25328;DHT22;13279;51.300;12.394;2022-10-16T04:48:39;14.50;99.90
25328;DHT22;13279;51.300;12.394;2022-10-16T04:51:06;14.40;99.90
25328;DHT22;13279;51.300;12.394;2022-10-16T04:53:34;14.40;99.90
25328;DHT22;13279;51.300;12.394;2022-10-16T04:56:01;14.40;99.90
25328;DHT22;13279;51.300;12.394;2022-10-16T04:58:29;14.40;99.90
25328;DHT22;13279;51.300;12.394;2022-10-16T05:00:58;14.40;99.90
25328;DHT22;13279;51.300;12.394;2022-10-16T05:03:28;14.40;99.90
25328;DHT22;13279;51.300;12.394;2022-10-16T05:05:55;14.40;99.90
25328;DHT22;13279;51.300;12.394;2022-10-16T05:08:23;14.40;99.90
25328;DHT22;13279;51.300;12.394;2022-10-16T05:10:51;14.40;99.90
25328;DHT22;13279;51.300;12.394;2022-10-16T05:13:18;14.40;99.90
25328;DHT22;13279;51.300;12.394;2022-10-16T05:15:47;14.30;99.90
25328;DHT22;13279;51.300;12.394;2022-10-16T05:18:16;14.30;99.90
25328;DHT22;13279;51.300;12.394;2022-10-16T05:20:44;14.30;99.90
25328;DHT22;13279;51.300;12.394;2022-10-16T05:23:12;14.30;99.90
25328;DHT22;13279;51.300;12.394;2022-10-16T05:25:39;14.30;99.90
25328;DHT22;13279;51.300;12.394;2022-10-16T05:28:07;14.30;99.90
25328;DHT22;13279;51.300;12.394;2022-10-16T05:30:37;14.30;99.90
25328;DHT22;13279;51.300;12.394;2022-10-16T05:33:04;14.30;99.90
25328;DHT22;13279;51.300;12.394;2022-10-16T05:35:34;14.30;99.90
25328;DHT22;13279;51.300;12.394;2022-10-16T05:38:02;14.30;99.90
25328;DHT22;13279;51.300;12.394;2022-10-16T05:40:29;14.20;99.90
25328;DHT22;13279;51.300;12.394;2022-10-16T05:42:57;14.30;99.90
25328;DHT22;13279;51.300;12.394;2022-10-16T05:45:25;14.30;99.90
25328;DHT22;13279;51.300;12.394;2022-10-16T05:47:52;14.30;99.90
25328;DHT22;13279;51.300;12.394;2022-10-16T05:50:19;14.30;99.90
25328;DHT22;13279;51.300;12.394;2022-10-16T05:52:48;14.30;99.90
25328;DHT22;13279;51.300;12.394;2022-10-16T05:55:16;14.30;99.90
25328;DHT22;13279;51.300;12.394;2022-10-16T05:57:43;14.40;99.90
25328;DHT22;13279;51.300;12.394;2022-10-16T06:00:11;14.40;99.90
25328;DHT22;13279;51.300;12.394;2022-10-16T06:02:39;14.40;99.90
25328;DHT22;13279;51.300;12.394;2022-10-16T06:05:07;14.40;99.90
25328;DHT22;13279;51.300;12.394;2022-10-16T06:07:35;14.40;99.90
25328;DHT22;13279;51.300;12.394;2022-10-16T06:10:05;14.50;99.90
25328;DHT22;13279;51.300;12.394;2022-10-16T06:12:33;14.50;99.90
25328;DHT22;13279;51.300;12.394;2022-10-16T06:15:00;14.50;99.90
25328;DHT22;13279;51.300;12.394;2022-10-16T06:17:28;14.60;99.90
25328;DHT22;13279;51.300;12.394;2022-10-16T06:19:55;14.70;99.90
25328;DHT22;13279;51.300;12.394;2022-10-16T06:22:23;14.70;99.90
25328;DHT22;13279;51.300;12.394;2022-10-16T06:24:50;14.80;99.90
25328;DHT22;13279;51.300;12.394;2022-10-16T06:27:19;14.80;99.90
25328;DHT22;13279;51.300;12.394;2022-10-16T06:29:47;14.90;99.90
25328;DHT22;13279;51.300;12.394;2022-10-16T06:32:14;14.90;99.90
25328;DHT22;13279;51.300;12.394;2022-10-16T06:34:41;15.00;99.90
25328;DHT22;13279;51.300;12.394;2022-10-16T06:37:09;15.00;99.90
25328;DHT22;13279;51.300;12.394;2022-10-16T06:39:37;15.20;99.90
25328;DHT22;13279;51.300;12.394;2022-10-16T06:42:05;15.20;99.90
25328;DHT22;13279;51.300;12.394;2022-10-16T06:44:36;15.30;99.90
25328;DHT22;13279;51.300;12.394;2022-10-16T06:47:04;15.30;99.90
25328;DHT22;13279;51.300;12.394;2022-10-16T06:49:31;15.30;99.90
25328;DHT22;13279;51.300;12.394;2022-10-16T06:51:59;15.30;99.90
25328;DHT22;13279;51.300;12.394;2022-10-16T06:54:27;15.40;99.90
25328;DHT22;13279;51.300;12.394;2022-10-16T06:56:55;15.40;99.90
25328;DHT22;13279;51.300;12.394;2022-10-16T06:59:22;15.40;99.90
25328;DHT22;13279;51.300;12.394;2022-10-16T07:01:51;15.50;99.90
25328;DHT22;13279;51.300;12.394;2022-10-16T07:04:19;15.40;99.90
25328;DHT22;13279;51.300;12.394;2022-10-16T07:06:46;15.50;99.90
25328;DHT22;13279;51.300;12.394;2022-10-16T07:09:14;15.50;99.90
25328;DHT22;13279;51.300;12.394;2022-10-16T07:11:41;15.50;99.90
25328;DHT22;13279;51.300;12.394;2022-10-16T07:14:15;15.50;99.90
25328;DHT22;13279;51.300;12.394;2022-10-16T07:16:43;15.60;99.90
25328;DHT22;13279;51.300;12.394;2022-10-16T07:19:12;15.60;99.90
25328;DHT22;13279;51.300;12.394;2022-10-16T07:21:41;15.60;99.90
25328;DHT22;13279;51.300;12.394;2022-10-16T07:24:12;15.70;99.90
25328;DHT22;13279;51.300;12.394;2022-10-16T07:26:40;15.80;99.90
25328;DHT22;13279;51.300;12.394;2022-10-16T07:29:12;15.80;99.90
25328;DHT22;13279;51.300;12.394;2022-10-16T07:31:40;16.00;99.90
25328;DHT22;13279;51.300;12.394;2022-10-16T07:34:08;16.10;99.90
25328;DHT22;13279;51.300;12.394;2022-10-16T07:36:38;16.30;99.90
25328;DHT22;13279;51.300;12.394;2022-10-16T07:39:05;16.40;99.90
25328;DHT22;13279;51.300;12.394;2022-10-16T07:41:33;16.50;99.90
25328;DHT22;13279;51.300;12.394;2022-10-16T07:44:03;16.60;99.90
25328;DHT22;13279;51.300;12.394;2022-10-16T07:46:31;16.70;99.90
25328;DHT22;13279;51.300;12.394;2022-10-16T07:49:00;16.80;99.90
25328;DHT22;13279;51.300;12.394;2022-10-16T07:51:27;17.00;99.90
25328;DHT22;13279;51.300;12.394;2022-10-16T07:53:57;17.10;99.90
25328;DHT22;13279;51.300;12.394;2022-10-16T07:56:25;17.10;99.90
25328;DHT22;13279;51.300;12.394;2022-10-16T07:58:53;17.20;99.90
25328;DHT22;13279;51.300;12.394;2022-10-16T08:01:21;17.30;99.90
25328;DHT22;13279;51.300;12.394;2022-10-16T08:03:50;17.40;99.90
25328;DHT22;13279;51.300;12.394;2022-10-16T08:06:21;17.60;99.90
25328;DHT22;13279;51.300;12.394;2022-10-16T08:08:50;17.90;99.90
25328;DHT22;13279;51.300;12.394;2022-10-16T08:11:19;18.30;99.90
25328;DHT22;13279;51.300;12.394;2022-10-16T08:13:46;18.60;99.90
25328;DHT22;13279;51.300;12.394;2022-10-16T08:16:14;18.60;99.90
25328;DHT22;13279;51.300;12.394;2022-10-16T08:18:41;18.50;99.90
25328;DHT22;13279;51.300;12.394;2022-10-16T08:21:13;18.50;99.90
25328;DHT22;13279;51.300;12.394;2022-10-16T08:23:41;18.40;99.90
25328;DHT22;13279;51.300;12.394;2022-10-16T08:26:11;18.30;99.90
25328;DHT22;13279;51.300;12.394;2022-10-16T08:28:40;18.20;99.90
25328;DHT22;13279;51.300;12.394;2022-10-16T08:31:10;18.10;99.90
25328;DHT22;13279;51.300;12.394;2022-10-16T08:33:40;18.10;99.90
25328;DHT22;13279;51.300;12.394;2022-10-16T08:36:10;18.20;99.90
25328;DHT22;13279;51.300;12.394;2022-10-16T08:38:39;18.30;99.90
25328;DHT22;13279;51.300;12.394;2022-10-16T08:41:32;18.30;99.90
25328;DHT22;13279;51.300;12.394;2022-10-16T08:47:14;18.30;99.90
25328;DHT22;13279;51.300;12.394;2022-10-16T08:49:50;18.40;99.90
25328;DHT22;13279;51.300;12.394;2022-10-16T08:52:19;18.60;99.90
25328;DHT22;13279;51.300;12.394;2022-10-16T08:54:50;18.70;99.90
25328;DHT22;13279;51.300;12.394;2022-10-16T08:57:21;18.80;99.90
25328;DHT22;13279;51.300;12.394;2022-10-16T08:59:50;18.70;99.90
25328;DHT22;13279;51.300;12.394;2022-10-16T09:02:28;18.70;99.90
25328;DHT22;13279;51.300;12.394;2022-10-16T09:05:09;18.70;99.90
25328;DHT22;13279;51.300;12.394;2022-10-16T09:07:48;18.60;99.90
25328;DHT22;13279;51.300;12.394;2022-10-16T09:10:26;18.60;99.90
25328;DHT22;13279;51.300;12.394;2022-10-16T09:12:58;18.60;99.90
25328;DHT22;13279;51.300;12.394;2022-10-16T09:15:34;18.70;99.90
25328;DHT22;13279;51.300;12.394;2022-10-16T09:18:09;18.70;99.90
25328;DHT22;13279;51.300;12.394;2022-10-16T09:20:48;18.70;99.90
25328;DHT22;13279;51.300;12.394;2022-10-16T09:23:18;18.80;99.90
25328;DHT22;13279;51.300;12.394;2022-10-16T09:25:48;18.90;99.90
25328;DHT22;13279;51.300;12.394;2022-10-16T09:28:17;18.90;99.90
25328;DHT22;13279;51.300;12.394;2022-10-16T09:30:46;19.00;99.90
25328;DHT22;13279;51.300;12.394;2022-10-16T09:33:17;19.00;99.90
25328;DHT22;13279;51.300;12.394;2022-10-16T09:35:48;19.10;99.90
25328;DHT22;13279;51.300;12.394;2022-10-16T09:38:25;19.10;99.90
25328;DHT22;13279;51.300;12.394;2022-10-16T09:40:54;19.10;99.90
25328;DHT22;13279;51.300;12.394;2022-10-16T09:43:26;19.30;99.90
25328;DHT22;13279;51.300;12.394;2022-10-16T09:46:00;19.40;99.90
25328;DHT22;13279;51.300;12.394;2022-10-16T09:48:33;19.40;99.90
25328;DHT22;13279;51.300;12.394;2022-10-16T09:51:04;19.30;99.90
25328;DHT22;13279;51.300;12.394;2022-10-16T09:53:43;19.10;99.90
25328;DHT22;13279;51.300;12.394;2022-10-16T09:56:22;19.00;99.90
25328;DHT22;13279;51.300;12.394;2022-10-16T09:58:50;19.20;99.90
25328;DHT22;13279;51.300;12.394;2022-10-16T10:01:21;19.40;99.90
25328;DHT22;13279;51.300;12.394;2022-10-16T10:03:50;19.40;99.90
25328;DHT22;13279;51.300;12.394;2022-10-16T10:06:23;19.70;99.90
25328;DHT22;13279;51.300;12.394;2022-10-16T10:11:47;19.80;99.90
25328;DHT22;13279;51.300;12.394;2022-10-16T10:14:27;19.90;99.90
25328;DHT22;13279;51.300;12.394;2022-10-16T10:17:15;19.80;99.90
25328;DHT22;13279;51.300;12.394;2022-10-16T10:19:47;19.90;99.90
25328;DHT22;13279;51.300;12.394;2022-10-16T10:22:24;19.90;99.90
25328;DHT22;13279;51.300;12.394;2022-10-16T10:25:00;19.90;99.90
25328;DHT22;13279;51.300;12.394;2022-10-16T10:27:35;19.70;99.90
25328;DHT22;13279;51.300;12.394;2022-10-16T10:30:13;19.60;99.90
25328;DHT22;13279;51.300;12.394;2022-10-16T10:32:50;19.80;99.90
25328;DHT22;13279;51.300;12.394;2022-10-16T10:35:24;19.90;99.90
25328;DHT22;13279;51.300;12.394;2022-10-16T10:38:06;20.00;99.90
25328;DHT22;13279;51.300;12.394;2022-10-16T10:40:48;19.90;99.90
25328;DHT22;13279;51.300;12.394;2022-10-16T10:43:32;19.90;99.90
25328;DHT22;13279;51.300;12.394;2022-10-16T10:46:09;19.80;99.90
25328;DHT22;13279;51.300;12.394;2022-10-16T10:48:54;19.80;99.90
25328;DHT22;13279;51.300;12.394;2022-10-16T10:51:31;19.70;99.90
25328;DHT22;13279;51.300;12.394;2022-10-16T10:54:14;19.70;99.90
25328;DHT22;13279;51.300;12.394;2022-10-16T10:56:50;19.80;99.90
25328;DHT22;13279;51.300;12.394;2022-10-16T10:59:49;19.80;99.90
25328;DHT22;13279;51.300;12.394;2022-10-16T11:02:26;19.80;99.90
25328;DHT22;13279;51.300;12.394;2022-10-16T11:08:03;19.90;99.90
25328;DHT22;13279;51.300;12.394;2022-10-16T11:10:36;20.00;99.90
25328;DHT22;13279;51.300;12.394;2022-10-16T11:13:15;19.90;99.90
25328;DHT22;13279;51.300;12.394;2022-10-16T11:15:47;19.90;99.90
25328;DHT22;13279;51.300;12.394;2022-10-16T11:18:19;19.90;99.90
25328;DHT22;13279;51.300;12.394;2022-10-16T11:20:53;19.90;99.90
25328;DHT22;13279;51.300;12.394;2022-10-16T11:23:26;19.90;99.90
25328;DHT22;13279;51.300;12.394;2022-10-16T11:25:59;20.00;99.90
25328;DHT22;13279;51.300;12.394;2022-10-16T11:28:34;20.00;99.90
25328;DHT22;13279;51.300;12.394;2022-10-16T11:31:10;20.00;99.90
25328;DHT22;13279;51.300;12.394;2022-10-16T11:33:41;20.10;99.90
25328;DHT22;13279;51.300;12.394;2022-10-16T11:36:17;20.10;99.90
25328;DHT22;13279;51.300;12.394;2022-10-16T11:38:51;20.10;99.90
25328;DHT22;13279;51.300;12.394;2022-10-16T11:41:26;20.30;99.90
25328;DHT22;13279;51.300;12.394;2022-10-16T11:44:12;20.40;99.90
25328;DHT22;13279;51.300;12.394;2022-10-16T11:46:48;20.50;99.90
25328;DHT22;13279;51.300;12.394;2022-10-16T11:49:21;20.50;99.90
25328;DHT22;13279;51.300;12.394;2022-10-16T11:51:59;20.60;99.90
25328;DHT22;13279;51.300;12.394;2022-10-16T11:54:35;20.50;99.90
25328;DHT22;13279;51.300;12.394;2022-10-16T11:57:10;20.50;99.90
25328;DHT22;13279;51.300;12.394;2022-10-16T11:59:45;20.50;99.90
25328;DHT22;13279;51.300;12.394;2022-10-16T12:02:29;20.60;99.90
25328;DHT22;13279;51.300;12.394;2022-10-16T12:05:06;20.60;99.90
25328;DHT22;13279;51.300;12.394;2022-10-16T12:07:45;20.60;99.90
25328;DHT22;13279;51.300;12.394;2022-10-16T12:10:27;20.60;99.90
25328;DHT22;13279;51.300;12.394;2022-10-16T12:12:55;20.60;99.90
25328;DHT22;13279;51.300;12.394;2022-10-16T12:15:25;20.60;99.90
25328;DHT22;13279;51.300;12.394;2022-10-16T12:17:54;20.50;99.90
25328;DHT22;13279;51.300;12.394;2022-10-16T12:20:28;20.40;99.90
25328;DHT22;13279;51.300;12.394;2022-10-16T12:23:01;20.40;99.90
25328;DHT22;13279;51.300;12.394;2022-10-16T12:25:31;20.40;99.90
25328;DHT22;13279;51.300;12.394;2022-10-16T12:28:04;20.30;99.90
25328;DHT22;13279;51.300;12.394;2022-10-16T12:30:34;20.10;99.90
25328;DHT22;13279;51.300;12.394;2022-10-16T12:33:04;20.10;99.90
25328;DHT22;13279;51.300;12.394;2022-10-16T12:35:34;20.00;99.90
25328;DHT22;13279;51.300;12.394;2022-10-16T12:38:17;20.00;99.90
25328;DHT22;13279;51.300;12.394;2022-10-16T12:40:46;20.10;99.90
25328;DHT22;13279;51.300;12.394;2022-10-16T12:43:36;20.20;99.90
25328;DHT22;13279;51.300;12.394;2022-10-16T12:46:18;20.40;99.90
25328;DHT22;13279;51.300;12.394;2022-10-16T12:48:47;20.40;99.90
25328;DHT22;13279;51.300;12.394;2022-10-16T12:51:24;20.30;99.90
25328;DHT22;13279;51.300;12.394;2022-10-16T12:54:01;20.20;99.90
25328;DHT22;13279;51.300;12.394;2022-10-16T12:56:38;20.10;99.90
25328;DHT22;13279;51.300;12.394;2022-10-16T12:59:21;19.90;99.90
25328;DHT22;13279;51.300;12.394;2022-10-16T13:02:07;19.70;99.90
25328;DHT22;13279;51.300;12.394;2022-10-16T13:05:02;19.60;99.90
25328;DHT22;13279;51.300;12.394;2022-10-16T13:07:52;19.70;99.90
25328;DHT22;13279;51.300;12.394;2022-10-16T13:10:30;19.70;99.90
25328;DHT22;13279;51.300;12.394;2022-10-16T13:13:26;19.70;99.90
25328;DHT22;13279;51.300;12.394;2022-10-16T13:16:03;19.70;99.90
25328;DHT22;13279;51.300;12.394;2022-10-16T13:18:42;19.90;99.90
25328;DHT22;13279;51.300;12.394;2022-10-16T13:21:26;20.00;99.90
25328;DHT22;13279;51.300;12.394;2022-10-16T13:24:02;20.10;99.90
25328;DHT22;13279;51.300;12.394;2022-10-16T13:26:41;20.10;99.90
25328;DHT22;13279;51.300;12.394;2022-10-16T13:29:14;20.10;99.90
25328;DHT22;13279;51.300;12.394;2022-10-16T13:31:47;20.40;99.90
25328;DHT22;13279;51.300;12.394;2022-10-16T13:34:17;20.40;99.90
25328;DHT22;13279;51.300;12.394;2022-10-16T13:36:48;20.40;99.90
25328;DHT22;13279;51.300;12.394;2022-10-16T13:39:21;20.80;99.90
25328;DHT22;13279;51.300;12.394;2022-10-16T13:42:01;21.60;99.90
25328;DHT22;13279;51.300;12.394;2022-10-16T13:44:36;22.20;99.90
25328;DHT22;13279;51.300;12.394;2022-10-16T13:47:04;22.60;99.90
25328;DHT22;13279;51.300;12.394;2022-10-16T13:51:59;23.70;99.90
25328;DHT22;13279;51.300;12.394;2022-10-16T13:54:28;23.90;99.90
25328;DHT22;13279;51.300;12.394;2022-10-16T13:56:56;23.90;99.90
25328;DHT22;13279;51.300;12.394;2022-10-16T13:59:27;23.90;99.90
25328;DHT22;13279;51.300;12.394;2022-10-16T14:02:04;23.50;99.90
25328;DHT22;13279;51.300;12.394;2022-10-16T14:04:33;23.00;99.90
25328;DHT22;13279;51.300;12.394;2022-10-16T14:07:00;22.20;99.90
25328;DHT22;13279;51.300;12.394;2022-10-16T14:09:29;21.70;99.90
25328;DHT22;13279;51.300;12.394;2022-10-16T14:12:00;21.40;99.90
25328;DHT22;13279;51.300;12.394;2022-10-16T14:14:34;20.90;99.90
25328;DHT22;13279;51.300;12.394;2022-10-16T14:17:03;20.70;99.90
25328;DHT22;13279;51.300;12.394;2022-10-16T14:19:31;20.50;99.90
25328;DHT22;13279;51.300;12.394;2022-10-16T14:22:00;20.40;99.90
25328;DHT22;13279;51.300;12.394;2022-10-16T14:24:32;20.30;99.90
25328;DHT22;13279;51.300;12.394;2022-10-16T14:27:01;20.20;99.90
25328;DHT22;13279;51.300;12.394;2022-10-16T14:29:33;20.20;99.90
25328;DHT22;13279;51.300;12.394;2022-10-16T14:32:03;20.20;99.90
25328;DHT22;13279;51.300;12.394;2022-10-16T14:34:32;20.20;99.90
25328;DHT22;13279;51.300;12.394;2022-10-16T14:37:06;20.30;99.90
25328;DHT22;13279;51.300;12.394;2022-10-16T14:39:35;20.30;99.90
25328;DHT22;13279;51.300;12.394;2022-10-16T14:42:17;20.20;99.90
25328;DHT22;13279;51.300;12.394;2022-10-16T14:44:51;20.40;99.90
25328;DHT22;13279;51.300;12.394;2022-10-16T14:47:21;20.50;99.90
25328;DHT22;13279;51.300;12.394;2022-10-16T14:49:51;20.40;99.90
25328;DHT22;13279;51.300;12.394;2022-10-16T14:52:21;20.40;99.90
25328;DHT22;13279;51.300;12.394;2022-10-16T14:54:50;20.40;99.90
25328;DHT22;13279;51.300;12.394;2022-10-16T14:57:23;20.50;99.90
25328;DHT22;13279;51.300;12.394;2022-10-16T14:59:53;20.30;99.90
25328;DHT22;13279;51.300;12.394;2022-10-16T15:02:27;20.80;99.90
25328;DHT22;13279;51.300;12.394;2022-10-16T15:04:57;21.20;99.90
25328;DHT22;13279;51.300;12.394;2022-10-16T15:07:25;21.50;99.90
25328;DHT22;13279;51.300;12.394;2022-10-16T15:09:59;21.60;99.90
25328;DHT22;13279;51.300;12.394;2022-10-16T15:12:26;21.80;99.90
25328;DHT22;13279;51.300;12.394;2022-10-16T15:14:55;21.80;99.90
25328;DHT22;13279;51.300;12.394;2022-10-16T15:17:23;21.90;99.90
25328;DHT22;13279;51.300;12.394;2022-10-16T15:20:04;21.80;99.90
25328;DHT22;13279;51.300;12.394;2022-10-16T15:22:35;21.80;99.90
25328;DHT22;13279;51.300;12.394;2022-10-16T15:25:10;21.90;99.90
25328;DHT22;13279;51.300;12.394;2022-10-16T15:27:45;21.60;99.90
25328;DHT22;13279;51.300;12.394;2022-10-16T15:30:17;21.40;99.90
25328;DHT22;13279;51.300;12.394;2022-10-16T15:32:45;21.00;99.90
25328;DHT22;13279;51.300;12.394;2022-10-16T15:35:13;20.70;99.90
25328;DHT22;13279;51.300;12.394;2022-10-16T15:37:40;20.40;99.90
25328;DHT22;13279;51.300;12.394;2022-10-16T15:40:09;20.20;99.90
25328;DHT22;13279;51.300;12.394;2022-10-16T15:42:46;20.10;99.90
25328;DHT22;13279;51.300;12.394;2022-10-16T15:45:35;20.00;99.90
25328;DHT22;13279;51.300;12.394;2022-10-16T15:48:06;19.80;99.90
25328;DHT22;13279;51.300;12.394;2022-10-16T15:50:34;19.80;99.90
25328;DHT22;13279;51.300;12.394;2022-10-16T15:53:17;19.70;99.90